createdAt,value
2023-11-24T00:01:12.042Z,102581.34
2023-11-24T00:03:40.115Z,102578.91
2023-11-24T00:06:09.994Z,102593.88
2023-11-24T00:08:38.366Z,102602.78
2023-11-24T00:11:06.774Z,102605.66
2023-11-24T00:13:35.562Z,102618.78
2023-11-24T00:16:04.646Z,102608.00
2023-11-24T00:18:33.092Z,102608.81
2023-11-24T00:21:07.573Z,102603.50
2023-11-24T00:23:36.906Z,102598.22
2023-11-24T00:26:07.047Z,102605.31
2023-11-24T00:28:35.280Z,102604.44
2023-11-24T00:31:06.713Z,102598.38
2023-11-24T00:33:36.128Z,102606.19
2023-11-24T00:36:04.351Z,102599.78
2023-11-24T00:38:32.315Z,102559.31
2023-11-24T00:41:01.824Z,102587.25
2023-11-24T00:43:29.774Z,102581.91
2023-11-24T00:45:57.842Z,102599.03
2023-11-24T00:48:25.892Z,102598.38
2023-11-24T00:50:55.244Z,102604.00
2023-11-24T00:53:23.411Z,102562.22
2023-11-24T00:55:51.395Z,102612.50
2023-11-24T00:58:20.698Z,102622.69
2023-11-24T01:00:48.794Z,102612.44
2023-11-24T01:03:17.142Z,102620.50
2023-11-24T01:05:45.133Z,102596.88
2023-11-24T01:08:13.149Z,102602.38
2023-11-24T01:10:41.180Z,102609.44
2023-11-24T01:13:09.101Z,102621.09
2023-11-24T01:15:38.574Z,102609.56
2023-11-24T01:18:08.274Z,102592.31
2023-11-24T01:20:36.293Z,102606.31
2023-11-24T01:23:05.535Z,102595.94
2023-11-24T01:25:32.635Z,102605.63
2023-11-24T01:28:00.959Z,102603.00
2023-11-24T01:30:28.971Z,102600.34
2023-11-24T01:32:59.290Z,102594.25
2023-11-24T01:35:27.314Z,102591.56
2023-11-24T01:37:55.324Z,102554.00
2023-11-24T01:40:23.798Z,102581.16
2023-11-24T01:42:52.235Z,102591.56
2023-11-24T01:45:20.189Z,102598.78
2023-11-24T01:47:48.842Z,102595.22
2023-11-24T01:50:18.695Z,102592.75
2023-11-24T01:52:46.742Z,102591.28
2023-11-24T01:55:15.295Z,102604.47
2023-11-24T01:57:43.716Z,102608.91
2023-11-24T02:00:14.474Z,102609.69
2023-11-24T02:02:43.361Z,102607.72
2023-11-24T02:05:12.251Z,102609.38
2023-11-24T02:07:41.573Z,102589.84
2023-11-24T02:10:10.529Z,102596.72
2023-11-24T02:12:38.485Z,102606.44
2023-11-24T02:15:08.202Z,102602.88
2023-11-24T02:17:36.188Z,102609.13
2023-11-24T02:20:07.087Z,102606.50
2023-11-24T02:22:40.374Z,102609.19
2023-11-24T02:25:09.606Z,102605.69
2023-11-24T02:27:37.569Z,102604.13
2023-11-24T02:30:06.814Z,102609.72
2023-11-24T02:32:35.700Z,102613.47
2023-11-24T02:35:04.164Z,102609.25
2023-11-24T02:37:32.120Z,102621.59
2023-11-24T02:40:01.553Z,102617.13
2023-11-24T02:42:29.656Z,102623.44
2023-11-24T02:44:57.669Z,102628.94
2023-11-24T02:47:25.680Z,102625.38
2023-11-24T02:49:53.616Z,102620.00
2023-11-24T02:52:22.066Z,102608.41
2023-11-24T02:54:50.112Z,102612.88
2023-11-24T02:57:19.440Z,102606.56
2023-11-24T02:59:47.392Z,102596.22
2023-11-24T03:02:15.440Z,102579.59
2023-11-24T03:04:43.509Z,102619.13
2023-11-24T03:07:12.281Z,102571.56
2023-11-24T03:09:40.238Z,102577.66
2023-11-24T03:12:09.084Z,102606.72
2023-11-24T03:14:39.568Z,102594.47
2023-11-24T03:17:07.573Z,102612.25
2023-11-24T03:19:35.486Z,102606.22
2023-11-24T03:22:03.491Z,102600.19
2023-11-24T03:24:31.513Z,102591.72
2023-11-24T03:26:59.524Z,102595.94
2023-11-24T03:29:27.597Z,102601.28
2023-11-24T03:31:57.042Z,102596.03
2023-11-24T03:34:25.019Z,102568.00
2023-11-24T03:36:53.215Z,102561.16
2023-11-24T03:39:22.434Z,102586.53
2023-11-24T03:41:50.396Z,102562.16
2023-11-24T03:44:18.334Z,102586.84
2023-11-24T03:46:46.361Z,102579.03
2023-11-24T03:49:15.677Z,102578.97
2023-11-24T03:51:43.608Z,102558.66
2023-11-24T03:54:11.585Z,102564.00
2023-11-24T03:56:39.714Z,102572.97
2023-11-24T03:59:07.852Z,102564.16
2023-11-24T04:01:36.033Z,102546.84
2023-11-24T04:04:04.182Z,102566.25
2023-11-24T04:06:33.647Z,102567.28
2023-11-24T04:09:01.631Z,102569.13
2023-11-24T04:11:29.573Z,102571.78
2023-11-24T04:13:58.186Z,102563.97
2023-11-24T04:16:26.755Z,102572.66
2023-11-24T04:18:54.799Z,102565.56
2023-11-24T04:21:22.915Z,102571.84
2023-11-24T04:23:52.384Z,102572.03
2023-11-24T04:26:20.360Z,102571.28
2023-11-24T04:28:48.245Z,102577.50
2023-11-24T04:31:16.189Z,102570.69
2023-11-24T04:33:44.210Z,102584.00
2023-11-24T04:36:13.607Z,102583.22
2023-11-24T04:38:41.555Z,102573.72
2023-11-24T04:41:11.489Z,102579.81
2023-11-24T04:43:40.017Z,102570.22
2023-11-24T04:46:09.392Z,102570.31
2023-11-24T04:48:39.495Z,102562.97
2023-11-24T04:51:07.642Z,102553.16
2023-11-24T04:53:36.752Z,102535.53
2023-11-24T04:56:06.695Z,102569.94
2023-11-24T04:58:36.061Z,102582.34
2023-11-24T05:01:04.223Z,102569.81
2023-11-24T05:03:32.562Z,102538.13
2023-11-24T05:06:00.958Z,102562.63
2023-11-24T05:08:28.910Z,102588.28
2023-11-24T05:10:56.845Z,102576.81
2023-11-24T05:13:24.805Z,102587.63
2023-11-24T05:15:54.172Z,102573.50
2023-11-24T05:18:22.193Z,102582.56
2023-11-24T05:20:50.162Z,102582.72
2023-11-24T05:23:18.104Z,102577.44
2023-11-24T05:25:46.110Z,102575.78
2023-11-24T05:28:14.039Z,102577.31
2023-11-24T05:30:42.139Z,102566.50
2023-11-24T05:33:11.511Z,102576.25
2023-11-24T05:35:39.469Z,102562.78
2023-11-24T05:38:08.239Z,102561.84
2023-11-24T05:40:36.103Z,102563.56
2023-11-24T05:43:04.151Z,102557.34
2023-11-24T05:45:35.665Z,102551.16
2023-11-24T05:48:03.861Z,102544.91
2023-11-24T05:50:33.306Z,102540.47
2023-11-24T05:53:01.278Z,102536.03
2023-11-24T05:55:29.285Z,102533.34
2023-11-24T05:57:57.831Z,102524.44
2023-11-24T06:00:26.811Z,102490.19
2023-11-24T06:02:54.799Z,102516.44
2023-11-24T06:05:22.818Z,102517.25
2023-11-24T06:07:54.306Z,102519.94
2023-11-24T06:10:23.816Z,102511.09
2023-11-24T06:12:51.830Z,102512.88
2023-11-24T06:15:19.808Z,102502.41
2023-11-24T06:17:49.703Z,102526.09
2023-11-24T06:20:17.782Z,102522.59
2023-11-24T06:22:45.789Z,102527.00
2023-11-24T06:25:16.514Z,102519.88
2023-11-24T06:27:45.221Z,102515.41
2023-11-24T06:30:13.669Z,102518.94
2023-11-24T06:32:41.713Z,102518.94
2023-11-24T06:35:11.397Z,102517.13
2023-11-24T06:37:39.634Z,102516.44
2023-11-24T06:40:12.747Z,102464.69
2023-11-24T06:42:42.504Z,102442.81
2023-11-24T06:45:13.756Z,102535.63
2023-11-24T06:47:42.198Z,102525.06
2023-11-24T06:50:11.112Z,102543.59
2023-11-24T06:52:39.076Z,102547.28
2023-11-24T06:55:08.390Z,102540.22
2023-11-24T06:57:36.658Z,102542.97
2023-11-24T07:00:08.989Z,102532.34
2023-11-24T07:02:37.671Z,102539.47
2023-11-24T07:05:06.520Z,102539.56
2023-11-24T07:07:34.449Z,102499.16
2023-11-24T07:10:02.433Z,102536.03
2023-11-24T07:12:30.621Z,102493.03
2023-11-24T07:15:00.404Z,102526.44
2023-11-24T07:17:32.648Z,102530.13
2023-11-24T07:20:00.699Z,102510.16
2023-11-24T07:22:28.688Z,102509.50
2023-11-24T07:24:56.983Z,102531.50
2023-11-24T07:27:25.088Z,102534.16
2023-11-24T07:29:53.084Z,102513.88
2023-11-24T07:32:26.116Z,102527.13
2023-11-24T07:34:55.542Z,102515.84
2023-11-24T07:37:23.569Z,102521.00
2023-11-24T07:39:51.583Z,102522.59
2023-11-24T07:42:19.652Z,102535.00
2023-11-24T07:44:47.674Z,102530.56
2023-11-24T07:47:16.143Z,102514.81
2023-11-24T07:49:44.069Z,102528.00
2023-11-24T07:52:13.798Z,102515.91
2023-11-24T07:54:41.946Z,102521.91
2023-11-24T07:57:10.121Z,102518.41
2023-11-24T07:59:38.769Z,102503.44
2023-11-24T08:02:07.339Z,102511.41
2023-11-24T08:04:35.364Z,102505.28
2023-11-24T08:07:03.508Z,102482.56
2023-11-24T08:09:33.695Z,102478.88
2023-11-24T08:12:01.642Z,102503.56
2023-11-24T08:14:30.632Z,102508.06
2023-11-24T08:16:58.696Z,102494.00
2023-11-24T08:19:27.310Z,102464.22
2023-11-24T08:21:55.257Z,102516.06
2023-11-24T08:24:23.183Z,102517.97
2023-11-24T08:26:52.794Z,102523.06
2023-11-24T08:29:20.712Z,102498.44
2023-11-24T08:31:49.744Z,102505.50
2023-11-24T08:34:19.265Z,102529.06
2023-11-24T08:36:48.114Z,102526.38
2023-11-24T08:39:16.752Z,102521.00
2023-11-24T08:41:49.549Z,102526.28
2023-11-24T08:44:25.375Z,102512.88
2023-11-24T08:46:53.688Z,102496.19
2023-11-24T08:49:23.367Z,102514.53
2023-11-24T08:51:51.421Z,102517.09
2023-11-24T08:54:19.408Z,102483.63
2023-11-24T08:56:47.357Z,102508.75
2023-11-24T08:59:15.341Z,102478.69
2023-11-24T09:01:44.672Z,102500.28
2023-11-24T09:04:14.327Z,102492.06
2023-11-24T09:06:42.943Z,102498.09
2023-11-24T09:09:13.511Z,102488.16
2023-11-24T09:11:41.544Z,102478.31
2023-11-24T09:14:10.836Z,102485.38
2023-11-24T09:16:40.403Z,102477.28
2023-11-24T09:19:09.959Z,102477.22
2023-11-24T09:21:37.988Z,102473.56
2023-11-24T09:24:07.161Z,102483.34
2023-11-24T09:26:35.077Z,102480.63
2023-11-24T09:29:03.838Z,102486.84
2023-11-24T09:31:35.692Z,102487.69
2023-11-24T09:34:04.720Z,102484.06
2023-11-24T09:36:34.227Z,102494.63
2023-11-24T09:39:02.204Z,102486.53
2023-11-24T09:41:30.297Z,102479.53
2023-11-24T09:44:00.942Z,102492.63
2023-11-24T09:46:33.469Z,102487.16
2023-11-24T09:49:07.594Z,102473.91
2023-11-24T09:51:38.136Z,102484.63
2023-11-24T09:54:07.078Z,102495.25
2023-11-24T09:56:35.845Z,102482.00
2023-11-24T09:59:09.761Z,102488.78
2023-11-24T10:01:38.624Z,102485.69
2023-11-24T10:04:07.903Z,102483.41
2023-11-24T10:06:40.293Z,102481.22
2023-11-24T10:09:11.708Z,102491.41
2023-11-24T10:11:40.694Z,102486.78
2023-11-24T10:14:12.193Z,102472.28
2023-11-24T10:16:42.415Z,102490.25
2023-11-24T10:19:18.501Z,102492.66
2023-11-24T10:21:50.414Z,102474.19
2023-11-24T10:24:18.430Z,102484.72
2023-11-24T10:26:47.237Z,102503.81
2023-11-24T10:29:16.509Z,102504.19
2023-11-24T10:31:44.982Z,102480.81
2023-11-24T10:34:13.000Z,102493.84
2023-11-24T10:36:41.870Z,102484.16
2023-11-24T10:39:13.087Z,102458.44
2023-11-24T10:41:44.325Z,102463.06
2023-11-24T10:44:12.510Z,102465.91
2023-11-24T10:46:42.874Z,102451.38
2023-11-24T10:49:13.914Z,102455.50
2023-11-24T10:51:45.825Z,102435.13
2023-11-24T10:54:22.835Z,102438.97
2023-11-24T10:56:51.598Z,102432.63
2023-11-24T10:59:20.803Z,102459.06
2023-11-24T11:01:49.076Z,102455.59
2023-11-24T11:04:17.171Z,102462.16
2023-11-24T11:06:49.816Z,102456.22
2023-11-24T11:09:29.921Z,102449.34
2023-11-24T11:12:38.638Z,102454.81
2023-11-24T11:15:10.751Z,102444.25
2023-11-24T11:17:39.625Z,102441.50
2023-11-24T11:20:13.693Z,102421.50
2023-11-24T11:22:43.886Z,102417.50
2023-11-24T11:25:42.579Z,102427.09
2023-11-24T11:28:47.712Z,102422.88
2023-11-24T11:31:39.053Z,102406.56
2023-11-24T11:34:18.017Z,102411.50
2023-11-24T11:36:55.884Z,102413.94
2023-11-24T11:39:27.833Z,102377.09
2023-11-24T11:41:58.318Z,102403.78
2023-11-24T11:44:34.679Z,102394.66
2023-11-24T11:47:16.749Z,102390.09
2023-11-24T11:49:44.956Z,102384.97
2023-11-24T11:52:13.483Z,102375.41
2023-11-24T11:54:41.991Z,102375.91
2023-11-24T11:57:12.302Z,102375.56
2023-11-24T11:59:41.204Z,102368.25
2023-11-24T12:02:15.897Z,102355.06
2023-11-24T12:04:46.786Z,102367.38
2023-11-24T12:07:16.417Z,102370.75
2023-11-24T12:09:44.939Z,102371.38
2023-11-24T12:12:14.390Z,102358.84
2023-11-24T12:14:43.950Z,102377.56
2023-11-24T12:17:13.464Z,102370.81
2023-11-24T12:19:44.348Z,102367.84
2023-11-24T12:22:12.661Z,102373.06
2023-11-24T12:24:41.347Z,102370.38
2023-11-24T12:27:09.963Z,102381.09
2023-11-24T12:29:42.512Z,102379.16
2023-11-24T12:32:11.748Z,102357.69
2023-11-24T12:34:42.988Z,102372.25
2023-11-24T12:37:11.054Z,102346.03
2023-11-24T12:39:41.801Z,102345.16
2023-11-24T12:42:12.064Z,102353.25
2023-11-24T12:44:42.823Z,102345.38
2023-11-24T12:47:15.160Z,102337.75
2023-11-24T12:50:07.806Z,102353.16
2023-11-24T12:52:36.496Z,102361.19
2023-11-24T12:55:08.472Z,102304.22
2023-11-24T12:57:36.750Z,102361.03
2023-11-24T13:00:11.083Z,102359.25
2023-11-24T13:02:40.660Z,102338.44
2023-11-24T13:05:09.671Z,102357.69
2023-11-24T13:07:37.997Z,102362.91
2023-11-24T13:10:11.731Z,102346.69
2023-11-24T13:12:40.444Z,102345.53
2023-11-24T13:15:10.830Z,102338.22
2023-11-24T13:17:39.522Z,102329.47
2023-11-24T13:20:11.617Z,102347.06
2023-11-24T13:22:39.885Z,102309.47
2023-11-24T13:25:09.718Z,102337.13
2023-11-24T13:27:37.783Z,102331.28
2023-11-24T13:30:10.514Z,102325.94
2023-11-24T13:32:40.204Z,102325.78
2023-11-24T13:35:11.902Z,102338.50
2023-11-24T13:37:40.430Z,102333.47
2023-11-24T13:40:10.775Z,102340.72
2023-11-24T13:42:38.872Z,102326.59
2023-11-24T13:45:08.575Z,102327.88
2023-11-24T13:47:37.133Z,102341.59
2023-11-24T13:50:08.806Z,102342.91
2023-11-24T13:52:36.859Z,102339.63
2023-11-24T13:55:07.275Z,102328.31
2023-11-24T13:57:36.845Z,102337.78
2023-11-24T14:00:08.265Z,102339.81
2023-11-24T14:02:37.481Z,102346.41
2023-11-24T14:05:09.911Z,102320.19
2023-11-24T14:07:37.885Z,102334.06
2023-11-24T14:10:07.473Z,102350.44
2023-11-24T14:12:36.357Z,102336.72
2023-11-24T14:15:05.815Z,102338.78
2023-11-24T14:17:36.872Z,102328.97
2023-11-24T14:20:08.210Z,102327.00
2023-11-24T14:22:37.511Z,102321.28
2023-11-24T14:25:07.773Z,102318.88
2023-11-24T14:27:36.274Z,102319.16
2023-11-24T14:30:06.753Z,102332.81
2023-11-24T14:32:34.826Z,102325.13
2023-11-24T14:35:04.301Z,102338.78
2023-11-24T14:37:33.721Z,102331.88
2023-11-24T14:40:02.656Z,102330.31
2023-11-24T14:42:30.850Z,102339.25
2023-11-24T14:44:58.832Z,102348.31
2023-11-24T14:47:28.054Z,102338.06
2023-11-24T14:49:56.143Z,102348.44
2023-11-24T14:52:24.785Z,102340.50
2023-11-24T14:54:56.652Z,102348.44
2023-11-24T14:57:24.712Z,102342.13
2023-11-24T14:59:56.026Z,102320.31
2023-11-24T15:02:26.914Z,102355.41
2023-11-24T15:04:55.081Z,102355.44
2023-11-24T15:07:24.694Z,102362.78
2023-11-24T15:09:54.110Z,102369.16
2023-11-24T15:12:27.838Z,102370.28
2023-11-24T15:14:59.956Z,102359.75
2023-11-24T15:17:28.043Z,102365.78
2023-11-24T15:19:56.780Z,102336.06
2023-11-24T15:22:28.339Z,102357.06
2023-11-24T15:24:59.651Z,102361.44
2023-11-24T15:27:28.621Z,102367.75
2023-11-24T15:29:56.822Z,102364.28
2023-11-24T15:32:25.129Z,102353.88
2023-11-24T15:34:54.424Z,102354.03
2023-11-24T15:37:23.902Z,102355.19
2023-11-24T15:39:58.066Z,102351.78
2023-11-24T15:42:30.369Z,102357.34
2023-11-24T15:45:00.197Z,102355.56
2023-11-24T15:47:29.634Z,102350.44
2023-11-24T15:49:59.505Z,102353.22
2023-11-24T15:52:28.535Z,102348.84
2023-11-24T15:54:58.753Z,102364.75
2023-11-24T15:57:31.197Z,102368.31
2023-11-24T16:00:02.716Z,102371.00
2023-11-24T16:02:34.083Z,102367.63
2023-11-24T16:05:05.778Z,102362.59
2023-11-24T16:07:35.688Z,102357.59
2023-11-24T16:10:15.161Z,102358.75
2023-11-24T16:12:45.976Z,102326.59
2023-11-24T16:15:17.326Z,102337.28
2023-11-24T16:17:46.985Z,102344.34
2023-11-24T16:20:15.264Z,102353.94
2023-11-24T16:22:43.314Z,102350.44
2023-11-24T16:25:11.347Z,102362.13
2023-11-24T16:27:42.095Z,102361.34
2023-11-24T16:30:12.310Z,102366.13
2023-11-24T16:32:40.681Z,102368.22
2023-11-24T16:35:10.292Z,102373.97
2023-11-24T16:37:38.447Z,102359.94
2023-11-24T16:40:09.384Z,102357.44
2023-11-24T16:42:37.491Z,102357.59
2023-11-24T16:45:07.503Z,102355.97
2023-11-24T16:47:37.706Z,102364.09
2023-11-24T16:50:06.590Z,102323.88
2023-11-24T16:52:34.693Z,102352.94
2023-11-24T16:55:04.120Z,102361.88
2023-11-24T16:57:34.740Z,102355.84
2023-11-24T17:00:05.196Z,102361.31
2023-11-24T17:02:33.511Z,102350.03
2023-11-24T17:05:04.376Z,102354.50
2023-11-24T17:07:32.487Z,102366.03
2023-11-24T17:10:00.596Z,102367.84
2023-11-24T17:12:31.202Z,102361.63
2023-11-24T17:14:59.326Z,102366.97
2023-11-24T17:17:27.552Z,102366.97
2023-11-24T17:19:55.764Z,102363.44
2023-11-24T17:22:25.220Z,102373.19
2023-11-24T17:24:53.298Z,102371.34
2023-11-24T17:27:21.373Z,102367.75
2023-11-24T17:29:49.949Z,102365.91
2023-11-24T17:32:18.849Z,102377.34
2023-11-24T17:34:47.468Z,102380.78
2023-11-24T17:37:16.819Z,102376.25
2023-11-24T17:39:46.873Z,102369.19
2023-11-24T17:42:14.893Z,102376.13
2023-11-24T17:44:42.923Z,102374.34
2023-11-24T17:47:10.993Z,102369.13
2023-11-24T17:49:39.044Z,102335.78
2023-11-24T17:52:08.588Z,102367.25
2023-11-24T17:54:36.700Z,102369.88
2023-11-24T17:57:06.496Z,102359.31
2023-11-24T17:59:34.511Z,102379.66
2023-11-24T18:02:03.147Z,102368.19
2023-11-24T18:04:31.350Z,102355.09
2023-11-24T18:07:00.433Z,102366.53
2023-11-24T18:09:29.303Z,102376.41
2023-11-24T18:11:57.777Z,102372.91
2023-11-24T18:14:27.178Z,102372.97
2023-11-24T18:16:55.239Z,102370.25
2023-11-24T18:19:23.731Z,102367.56
2023-11-24T18:21:52.512Z,102368.41
2023-11-24T18:24:21.054Z,102372.81
2023-11-24T18:26:49.262Z,102374.69
2023-11-24T18:29:18.224Z,102366.00
2023-11-24T18:31:48.990Z,102376.56
2023-11-24T18:34:17.296Z,102377.41
2023-11-24T18:36:45.281Z,102378.22
2023-11-24T18:39:13.725Z,102371.13
2023-11-24T18:41:42.098Z,102385.44
2023-11-24T18:44:10.255Z,102384.66
2023-11-24T18:46:38.321Z,102393.72
2023-11-24T18:49:08.063Z,102392.91
2023-11-24T18:51:36.152Z,102382.38
2023-11-24T18:54:04.240Z,102390.41
2023-11-24T18:56:32.225Z,102373.69
2023-11-24T18:59:00.453Z,102378.97
2023-11-24T19:01:28.573Z,102374.66
2023-11-24T19:03:57.360Z,102381.72
2023-11-24T19:06:27.375Z,102384.44
2023-11-24T19:08:56.642Z,102385.44
2023-11-24T19:11:25.310Z,102389.97
2023-11-24T19:13:53.398Z,102395.28
2023-11-24T19:16:21.696Z,102388.22
2023-11-24T19:18:49.791Z,102389.13
2023-11-24T19:21:18.807Z,102355.00
2023-11-24T19:23:49.562Z,102384.97
2023-11-24T19:26:18.154Z,102360.50
2023-11-24T19:28:59.076Z,102386.94
2023-11-24T19:31:34.093Z,102387.91
2023-11-24T19:34:03.437Z,102396.88
2023-11-24T19:36:31.508Z,102388.03
2023-11-24T19:39:01.210Z,102335.53
2023-11-24T19:41:29.943Z,102400.63
2023-11-24T19:43:58.009Z,102379.63
2023-11-24T19:46:26.191Z,102399.06
2023-11-24T19:48:54.296Z,102397.38
2023-11-24T19:51:22.343Z,102403.63
2023-11-24T19:53:52.584Z,102406.31
2023-11-24T19:56:23.442Z,102392.34
2023-11-24T19:58:51.952Z,102393.22
2023-11-24T20:01:23.258Z,102403.78
2023-11-24T20:03:51.566Z,102386.34
2023-11-24T20:06:20.167Z,102395.03
2023-11-24T20:08:48.347Z,102387.19
2023-11-24T20:11:17.501Z,102398.66
2023-11-24T20:13:47.096Z,102386.50
2023-11-24T20:16:15.369Z,102388.28
2023-11-24T20:18:45.649Z,102393.66
2023-11-24T20:21:14.032Z,102399.06
2023-11-24T20:23:42.041Z,102415.88
2023-11-24T20:26:10.099Z,102415.91
2023-11-24T20:28:38.218Z,102405.31
2023-11-24T20:31:08.495Z,102341.22
2023-11-24T20:33:36.581Z,102410.69
2023-11-24T20:36:04.807Z,102394.06
2023-11-24T20:38:33.310Z,102391.44
2023-11-24T20:41:01.387Z,102385.41
2023-11-24T20:43:30.414Z,102394.25
2023-11-24T20:45:58.597Z,102381.25
2023-11-24T20:48:28.057Z,102409.44
2023-11-24T20:50:56.306Z,102400.78
2023-11-24T20:53:24.306Z,102417.56
2023-11-24T20:55:52.346Z,102403.59
2023-11-24T20:58:20.370Z,102408.91
2023-11-24T21:00:48.616Z,102412.50
2023-11-24T21:03:16.677Z,102413.44
2023-11-24T21:05:46.119Z,102411.78
2023-11-24T21:08:14.068Z,102416.31
2023-11-24T21:10:42.201Z,102439.34
2023-11-24T21:13:10.325Z,102428.09
2023-11-24T21:15:38.430Z,102437.84
2023-11-24T21:18:07.049Z,102458.09
2023-11-24T21:20:35.191Z,102451.91
2023-11-24T21:23:04.750Z,102445.81
2023-11-24T21:25:32.938Z,102416.06
2023-11-24T21:28:01.346Z,102453.09
2023-11-24T21:30:29.396Z,102460.28
2023-11-24T21:32:57.611Z,102444.53
2023-11-24T21:35:25.704Z,102463.94
2023-11-24T21:37:53.740Z,102462.22
2023-11-24T21:40:23.538Z,102444.66
2023-11-24T21:42:51.662Z,102449.03
2023-11-24T21:45:19.830Z,102444.66
2023-11-24T21:47:48.292Z,102446.44
2023-11-24T21:50:18.316Z,102442.97
2023-11-24T21:52:46.624Z,102442.16
2023-11-24T21:55:14.922Z,102439.53
2023-11-24T21:57:44.568Z,102465.09
2023-11-24T22:00:18.396Z,102454.53
2023-11-24T22:02:46.882Z,102453.66
2023-11-24T22:05:15.495Z,102451.06
2023-11-24T22:07:44.504Z,102449.31
2023-11-24T22:10:12.800Z,102459.94
2023-11-24T22:12:41.896Z,102452.09
2023-11-24T22:15:11.994Z,102447.72
2023-11-24T22:17:40.052Z,102467.13
2023-11-24T22:20:12.004Z,102453.03
2023-11-24T22:22:40.545Z,102467.16
2023-11-24T22:25:09.606Z,102461.88
2023-11-24T22:27:38.161Z,102431.00
2023-11-24T22:30:07.864Z,102455.69
2023-11-24T22:32:37.715Z,102466.28
2023-11-24T22:35:06.426Z,102466.28
2023-11-24T22:37:35.654Z,102448.69
2023-11-24T22:40:06.390Z,102458.38
2023-11-24T22:42:35.448Z,102436.38
2023-11-24T22:45:06.897Z,102462.00
2023-11-24T22:47:39.280Z,102461.16
2023-11-24T22:50:11.226Z,102463.84
2023-11-24T22:52:39.702Z,102392.59
2023-11-24T22:55:08.223Z,102447.16
2023-11-24T22:57:36.607Z,102439.25
2023-11-24T23:00:07.110Z,102434.00
2023-11-24T23:02:35.250Z,102436.69
2023-11-24T23:05:03.325Z,102449.94
2023-11-24T23:07:33.133Z,102457.91
2023-11-24T23:10:02.049Z,102441.19
2023-11-24T23:12:30.107Z,102451.75
2023-11-24T23:14:58.122Z,102446.47
2023-11-24T23:17:26.214Z,102445.59
2023-11-24T23:19:54.360Z,102437.69
2023-11-24T23:22:31.229Z,102435.09
2023-11-24T23:25:07.569Z,102457.09
2023-11-24T23:27:38.799Z,102445.63
2023-11-24T23:30:15.013Z,102455.31
2023-11-24T23:32:45.166Z,102457.94
2023-11-24T23:35:13.542Z,102461.47
2023-11-24T23:37:45.206Z,102454.44
2023-11-24T23:40:15.956Z,102448.25
2023-11-24T23:42:46.234Z,102459.69
2023-11-24T23:45:15.190Z,102456.19
2023-11-24T23:47:43.878Z,102454.41
2023-11-24T23:50:12.464Z,102472.94
2023-11-24T23:52:40.832Z,102472.06
2023-11-24T23:55:09.569Z,102472.03
2023-11-24T23:57:39.047Z,102475.59
